sensor_id;sensor_type;location;lat;lon;timestamp;temperature;humidity
22491;DHT22;11412;50.802;4.350;2023-07-30T00:01:58;17.20;99.90
22491;DHT22;11412;50.802;4.350;2023-07-30T00:04:24;17.30;99.90
22491;DHT22;11412;50.802;4.350;2023-07-30T00:06:50;17.40;99.90
22491;DHT22;11412;50.802;4.350;2023-07-30T00:09:16;17.20;99.90
22491;DHT22;11412;50.802;4.350;2023-07-30T00:11:42;17.30;99.90
22491;DHT22;11412;50.802;4.350;2023-07-30T00:14:07;17.20;99.90
22491;DHT22;11412;50.802;4.350;2023-07-30T00:16:33;17.20;99.90
22491;DHT22;11412;50.802;4.350;2023-07-30T00:18:58;17.30;99.90
22491;DHT22;11412;50.802;4.350;2023-07-30T00:21:24;17.40;99.90
22491;DHT22;11412;50.802;4.350;2023-07-30T00:23:50;17.40;99.90
22491;DHT22;11412;50.802;4.350;2023-07-30T00:26:15;17.40;99.90
22491;DHT22;11412;50.802;4.350;2023-07-30T00:28:41;17.30;99.90
22491;DHT22;11412;50.802;4.350;2023-07-30T00:31:07;17.40;99.90
22491;DHT22;11412;50.802;4.350;2023-07-30T00:33:32;17.40;99.90
22491;DHT22;11412;50.802;4.350;2023-07-30T00:35:58;17.30;99.90
22491;DHT22;11412;50.802;4.350;2023-07-30T00:38:23;17.40;99.90
22491;DHT22;11412;50.802;4.350;2023-07-30T00:40:49;17.30;99.90
22491;DHT22;11412;50.802;4.350;2023-07-30T00:43:15;17.30;99.90
22491;DHT22;11412;50.802;4.350;2023-07-30T00:45:43;17.30;99.90
22491;DHT22;11412;50.802;4.350;2023-07-30T00:48:10;17.10;99.90
22491;DHT22;11412;50.802;4.350;2023-07-30T00:50:37;17.10;99.90
22491;DHT22;11412;50.802;4.350;2023-07-30T00:53:03;17.10;99.90
22491;DHT22;11412;50.802;4.350;2023-07-30T00:55:29;17.30;99.90
22491;DHT22;11412;50.802;4.350;2023-07-30T00:57:56;17.40;99.90
22491;DHT22;11412;50.802;4.350;2023-07-30T01:00:22;17.40;99.90
22491;DHT22;11412;50.802;4.350;2023-07-30T01:02:51;17.50;99.90
22491;DHT22;11412;50.802;4.350;2023-07-30T01:05:18;17.60;99.90
22491;DHT22;11412;50.802;4.350;2023-07-30T01:07:43;17.50;99.90
22491;DHT22;11412;50.802;4.350;2023-07-30T01:10:09;17.60;99.90
22491;DHT22;11412;50.802;4.350;2023-07-30T01:12:35;17.60;99.90
22491;DHT22;11412;50.802;4.350;2023-07-30T01:15:03;17.40;99.90
22491;DHT22;11412;50.802;4.350;2023-07-30T01:17:29;17.40;99.90
22491;DHT22;11412;50.802;4.350;2023-07-30T01:19:55;17.50;99.90
22491;DHT22;11412;50.802;4.350;2023-07-30T01:22:22;17.50;99.90
22491;DHT22;11412;50.802;4.350;2023-07-30T01:24:48;17.40;99.90
22491;DHT22;11412;50.802;4.350;2023-07-30T01:27:22;17.50;99.90
22491;DHT22;11412;50.802;4.350;2023-07-30T01:29:51;17.50;99.90
22491;DHT22;11412;50.802;4.350;2023-07-30T01:32:18;17.40;99.90
22491;DHT22;11412;50.802;4.350;2023-07-30T01:34:46;17.70;99.90
22491;DHT22;11412;50.802;4.350;2023-07-30T01:37:15;17.50;99.90
22491;DHT22;11412;50.802;4.350;2023-07-30T01:39:42;17.60;99.90
22491;DHT22;11412;50.802;4.350;2023-07-30T01:42:12;17.80;99.90
22491;DHT22;11412;50.802;4.350;2023-07-30T01:44:37;17.80;99.90
22491;DHT22;11412;50.802;4.350;2023-07-30T01:47:03;17.80;99.90
22491;DHT22;11412;50.802;4.350;2023-07-30T01:49:29;17.90;99.90
22491;DHT22;11412;50.802;4.350;2023-07-30T01:51:54;18.10;99.90
22491;DHT22;11412;50.802;4.350;2023-07-30T01:54:20;17.80;99.90
22491;DHT22;11412;50.802;4.350;2023-07-30T01:56:45;17.70;99.90
22491;DHT22;11412;50.802;4.350;2023-07-30T01:59:11;17.70;99.90
22491;DHT22;11412;50.802;4.350;2023-07-30T02:01:37;17.60;99.90
22491;DHT22;11412;50.802;4.350;2023-07-30T02:04:02;17.70;99.90
22491;DHT22;11412;50.802;4.350;2023-07-30T02:06:28;17.70;99.90
22491;DHT22;11412;50.802;4.350;2023-07-30T02:08:54;17.90;99.90
22491;DHT22;11412;50.802;4.350;2023-07-30T02:11:19;18.00;99.90
22491;DHT22;11412;50.802;4.350;2023-07-30T02:13:45;17.90;99.90
22491;DHT22;11412;50.802;4.350;2023-07-30T02:16:11;17.80;99.90
22491;DHT22;11412;50.802;4.350;2023-07-30T02:18:36;17.70;99.90
22491;DHT22;11412;50.802;4.350;2023-07-30T02:21:02;17.80;99.90
22491;DHT22;11412;50.802;4.350;2023-07-30T02:23:28;17.90;99.90
22491;DHT22;11412;50.802;4.350;2023-07-30T02:25:54;17.80;99.90
22491;DHT22;11412;50.802;4.350;2023-07-30T02:28:19;17.70;99.90
22491;DHT22;11412;50.802;4.350;2023-07-30T02:30:45;17.60;99.90
22491;DHT22;11412;50.802;4.350;2023-07-30T02:33:10;17.50;99.90
22491;DHT22;11412;50.802;4.350;2023-07-30T02:35:36;17.50;99.90
22491;DHT22;11412;50.802;4.350;2023-07-30T02:38:02;17.40;99.90
22491;DHT22;11412;50.802;4.350;2023-07-30T02:40:28;17.30;99.90
22491;DHT22;11412;50.802;4.350;2023-07-30T02:42:54;17.20;99.90
22491;DHT22;11412;50.802;4.350;2023-07-30T02:45:20;17.30;99.90
22491;DHT22;11412;50.802;4.350;2023-07-30T02:47:45;17.30;99.90
22491;DHT22;11412;50.802;4.350;2023-07-30T02:50:11;17.30;99.90
22491;DHT22;11412;50.802;4.350;2023-07-30T02:52:37;17.30;99.90
22491;DHT22;11412;50.802;4.350;2023-07-30T02:55:02;17.40;99.90
22491;DHT22;11412;50.802;4.350;2023-07-30T02:57:29;17.60;99.90
22491;DHT22;11412;50.802;4.350;2023-07-30T02:59:55;17.50;99.90
22491;DHT22;11412;50.802;4.350;2023-07-30T03:02:20;17.50;99.90
22491;DHT22;11412;50.802;4.350;2023-07-30T03:04:46;17.30;99.90
22491;DHT22;11412;50.802;4.350;2023-07-30T03:07:12;17.50;99.90
22491;DHT22;11412;50.802;4.350;2023-07-30T03:09:37;17.40;99.90
22491;DHT22;11412;50.802;4.350;2023-07-30T03:12:03;17.40;99.90
22491;DHT22;11412;50.802;4.350;2023-07-30T03:14:29;17.40;99.90
22491;DHT22;11412;50.802;4.350;2023-07-30T03:16:56;17.30;99.90
22491;DHT22;11412;50.802;4.350;2023-07-30T03:19:22;17.20;99.90
22491;DHT22;11412;50.802;4.350;2023-07-30T03:21:48;17.10;99.90
22491;DHT22;11412;50.802;4.350;2023-07-30T03:24:14;17.10;99.90
22491;DHT22;11412;50.802;4.350;2023-07-30T03:26:39;17.10;99.90
22491;DHT22;11412;50.802;4.350;2023-07-30T03:29:05;17.30;99.90
22491;DHT22;11412;50.802;4.350;2023-07-30T03:31:30;17.20;99.90
22491;DHT22;11412;50.802;4.350;2023-07-30T03:33:56;17.10;99.90
22491;DHT22;11412;50.802;4.350;2023-07-30T03:36:22;17.10;99.90
22491;DHT22;11412;50.802;4.350;2023-07-30T03:38:47;17.20;99.90
22491;DHT22;11412;50.802;4.350;2023-07-30T03:41:13;17.10;99.90
22491;DHT22;11412;50.802;4.350;2023-07-30T03:43:39;17.30;99.90
22491;DHT22;11412;50.802;4.350;2023-07-30T03:46:04;17.20;99.90
22491;DHT22;11412;50.802;4.350;2023-07-30T03:48:30;17.20;99.90
22491;DHT22;11412;50.802;4.350;2023-07-30T03:50:56;17.30;99.90
22491;DHT22;11412;50.802;4.350;2023-07-30T03:53:22;17.20;99.90
22491;DHT22;11412;50.802;4.350;2023-07-30T03:55:48;17.30;99.90
22491;DHT22;11412;50.802;4.350;2023-07-30T03:58:14;17.20;99.90
22491;DHT22;11412;50.802;4.350;2023-07-30T04:00:40;17.30;99.90
22491;DHT22;11412;50.802;4.350;2023-07-30T04:03:06;17.30;99.90
22491;DHT22;11412;50.802;4.350;2023-07-30T04:05:32;17.20;99.90
22491;DHT22;11412;50.802;4.350;2023-07-30T04:07:58;17.10;99.90
22491;DHT22;11412;50.802;4.350;2023-07-30T04:10:23;17.10;99.90
22491;DHT22;11412;50.802;4.350;2023-07-30T04:12:49;17.20;99.90
22491;DHT22;11412;50.802;4.350;2023-07-30T04:15:16;17.10;99.90
22491;DHT22;11412;50.802;4.350;2023-07-30T04:17:41;16.90;99.90
22491;DHT22;11412;50.802;4.350;2023-07-30T04:20:08;16.90;99.90
22491;DHT22;11412;50.802;4.350;2023-07-30T04:22:36;17.00;99.90
22491;DHT22;11412;50.802;4.350;2023-07-30T04:25:03;16.90;99.90
22491;DHT22;11412;50.802;4.350;2023-07-30T04:27:29;16.80;99.90
22491;DHT22;11412;50.802;4.350;2023-07-30T04:29:54;16.80;99.90
22491;DHT22;11412;50.802;4.350;2023-07-30T04:32:20;16.60;99.90
22491;DHT22;11412;50.802;4.350;2023-07-30T04:34:46;16.90;99.90
22491;DHT22;11412;50.802;4.350;2023-07-30T04:37:11;16.80;99.90
22491;DHT22;11412;50.802;4.350;2023-07-30T04:39:37;16.70;99.90
22491;DHT22;11412;50.802;4.350;2023-07-30T04:42:03;16.60;99.90
22491;DHT22;11412;50.802;4.350;2023-07-30T04:44:29;16.70;99.90
22491;DHT22;11412;50.802;4.350;2023-07-30T04:46:55;16.60;99.90
22491;DHT22;11412;50.802;4.350;2023-07-30T04:49:20;16.60;99.90
22491;DHT22;11412;50.802;4.350;2023-07-30T04:51:46;16.70;99.90
22491;DHT22;11412;50.802;4.350;2023-07-30T04:54:12;16.60;99.90
22491;DHT22;11412;50.802;4.350;2023-07-30T04:56:38;16.50;99.90
22491;DHT22;11412;50.802;4.350;2023-07-30T04:59:03;16.70;99.90
22491;DHT22;11412;50.802;4.350;2023-07-30T05:01:29;16.70;99.90
22491;DHT22;11412;50.802;4.350;2023-07-30T05:03:55;16.80;99.90
22491;DHT22;11412;50.802;4.350;2023-07-30T05:06:21;16.80;99.90
22491;DHT22;11412;50.802;4.350;2023-07-30T05:08:46;16.70;99.90
22491;DHT22;11412;50.802;4.350;2023-07-30T05:11:12;16.60;99.90
22491;DHT22;11412;50.802;4.350;2023-07-30T05:13:37;16.70;99.90
22491;DHT22;11412;50.802;4.350;2023-07-30T05:16:03;16.50;99.90
22491;DHT22;11412;50.802;4.350;2023-07-30T05:18:29;16.60;99.90
22491;DHT22;11412;50.802;4.350;2023-07-30T05:20:55;16.70;99.90
22491;DHT22;11412;50.802;4.350;2023-07-30T05:23:21;16.70;99.90
22491;DHT22;11412;50.802;4.350;2023-07-30T05:25:46;16.70;99.90
22491;DHT22;11412;50.802;4.350;2023-07-30T05:28:12;16.90;99.90
22491;DHT22;11412;50.802;4.350;2023-07-30T05:30:38;16.90;99.90
22491;DHT22;11412;50.802;4.350;2023-07-30T05:33:04;16.80;99.90
22491;DHT22;11412;50.802;4.350;2023-07-30T05:35:29;16.90;99.90
22491;DHT22;11412;50.802;4.350;2023-07-30T05:37:55;16.90;99.90
22491;DHT22;11412;50.802;4.350;2023-07-30T05:40:21;16.90;99.90
22491;DHT22;11412;50.802;4.350;2023-07-30T05:42:47;17.00;99.90
22491;DHT22;11412;50.802;4.350;2023-07-30T05:45:13;17.00;99.90
22491;DHT22;11412;50.802;4.350;2023-07-30T05:47:38;16.90;99.90
22491;DHT22;11412;50.802;4.350;2023-07-30T05:50:05;16.90;99.90
22491;DHT22;11412;50.802;4.350;2023-07-30T05:52:31;17.00;99.90
22491;DHT22;11412;50.802;4.350;2023-07-30T05:54:57;17.10;99.90
22491;DHT22;11412;50.802;4.350;2023-07-30T05:57:22;17.10;99.90
22491;DHT22;11412;50.802;4.350;2023-07-30T05:59:48;17.20;99.90
22491;DHT22;11412;50.802;4.350;2023-07-30T06:02:14;17.10;99.90
22491;DHT22;11412;50.802;4.350;2023-07-30T06:04:39;16.90;99.90
22491;DHT22;11412;50.802;4.350;2023-07-30T06:07:05;16.90;99.90
22491;DHT22;11412;50.802;4.350;2023-07-30T06:09:31;16.90;99.90
22491;DHT22;11412;50.802;4.350;2023-07-30T06:11:57;17.00;99.90
22491;DHT22;11412;50.802;4.350;2023-07-30T06:14:23;17.10;99.90
22491;DHT22;11412;50.802;4.350;2023-07-30T06:16:49;17.00;99.90
22491;DHT22;11412;50.802;4.350;2023-07-30T06:19:15;17.00;99.90
22491;DHT22;11412;50.802;4.350;2023-07-30T06:21:41;17.10;99.90
22491;DHT22;11412;50.802;4.350;2023-07-30T06:24:06;17.10;99.90
22491;DHT22;11412;50.802;4.350;2023-07-30T06:26:32;17.10;99.90
22491;DHT22;11412;50.802;4.350;2023-07-30T06:28:58;17.00;99.90
22491;DHT22;11412;50.802;4.350;2023-07-30T06:31:24;17.10;99.90
22491;DHT22;11412;50.802;4.350;2023-07-30T06:33:49;17.20;99.90
22491;DHT22;11412;50.802;4.350;2023-07-30T06:36:15;17.10;99.90
22491;DHT22;11412;50.802;4.350;2023-07-30T06:38:41;17.10;99.90
22491;DHT22;11412;50.802;4.350;2023-07-30T06:41:06;17.20;99.90
22491;DHT22;11412;50.802;4.350;2023-07-30T06:43:32;17.20;99.90
22491;DHT22;11412;50.802;4.350;2023-07-30T06:45:57;17.30;99.90
22491;DHT22;11412;50.802;4.350;2023-07-30T06:48:23;17.30;99.90
22491;DHT22;11412;50.802;4.350;2023-07-30T06:50:49;17.30;99.90
22491;DHT22;11412;50.802;4.350;2023-07-30T06:53:14;17.30;99.90
22491;DHT22;11412;50.802;4.350;2023-07-30T06:55:40;17.40;99.90
22491;DHT22;11412;50.802;4.350;2023-07-30T06:58:06;17.40;99.90
22491;DHT22;11412;50.802;4.350;2023-07-30T07:00:31;17.50;99.90
22491;DHT22;11412;50.802;4.350;2023-07-30T07:02:57;17.90;99.90
22491;DHT22;11412;50.802;4.350;2023-07-30T07:05:22;18.00;99.90
22491;DHT22;11412;50.802;4.350;2023-07-30T07:07:48;18.20;99.90
22491;DHT22;11412;50.802;4.350;2023-07-30T07:10:14;18.40;99.90
22491;DHT22;11412;50.802;4.350;2023-07-30T07:12:40;18.40;99.90
22491;DHT22;11412;50.802;4.350;2023-07-30T07:15:07;18.60;99.90
22491;DHT22;11412;50.802;4.350;2023-07-30T07:17:32;18.60;99.90
22491;DHT22;11412;50.802;4.350;2023-07-30T07:19:58;18.90;99.90
22491;DHT22;11412;50.802;4.350;2023-07-30T07:22:24;19.20;99.90
22491;DHT22;11412;50.802;4.350;2023-07-30T07:24:51;19.10;99.90
22491;DHT22;11412;50.802;4.350;2023-07-30T07:27:18;19.00;99.90
22491;DHT22;11412;50.802;4.350;2023-07-30T07:29:44;19.30;99.90
22491;DHT22;11412;50.802;4.350;2023-07-30T07:32:10;19.60;99.90
22491;DHT22;11412;50.802;4.350;2023-07-30T07:34:35;19.40;99.90
22491;DHT22;11412;50.802;4.350;2023-07-30T07:37:02;19.30;99.90
22491;DHT22;11412;50.802;4.350;2023-07-30T07:39:28;19.10;99.90
22491;DHT22;11412;50.802;4.350;2023-07-30T07:41:55;19.10;99.90
22491;DHT22;11412;50.802;4.350;2023-07-30T07:44:21;19.10;99.90
22491;DHT22;11412;50.802;4.350;2023-07-30T07:46:47;19.00;99.90
22491;DHT22;11412;50.802;4.350;2023-07-30T07:49:13;19.00;99.90
22491;DHT22;11412;50.802;4.350;2023-07-30T07:51:39;18.80;99.90
22491;DHT22;11412;50.802;4.350;2023-07-30T07:54:04;19.00;99.90
22491;DHT22;11412;50.802;4.350;2023-07-30T07:56:31;19.10;99.90
22491;DHT22;11412;50.802;4.350;2023-07-30T07:58:57;19.10;99.90
22491;DHT22;11412;50.802;4.350;2023-07-30T08:01:22;19.20;99.90
22491;DHT22;11412;50.802;4.350;2023-07-30T08:03:48;19.40;99.90
22491;DHT22;11412;50.802;4.350;2023-07-30T08:06:14;19.60;99.90
22491;DHT22;11412;50.802;4.350;2023-07-30T08:08:39;19.70;99.90
22491;DHT22;11412;50.802;4.350;2023-07-30T08:11:06;19.60;99.90
22491;DHT22;11412;50.802;4.350;2023-07-30T08:13:33;19.60;99.90
22491;DHT22;11412;50.802;4.350;2023-07-30T08:15:59;19.60;99.90
22491;DHT22;11412;50.802;4.350;2023-07-30T08:18:26;19.60;99.90
22491;DHT22;11412;50.802;4.350;2023-07-30T08:20:52;19.70;99.90
22491;DHT22;11412;50.802;4.350;2023-07-30T08:23:17;19.70;99.90
22491;DHT22;11412;50.802;4.350;2023-07-30T08:25:43;19.70;99.90
22491;DHT22;11412;50.802;4.350;2023-07-30T08:28:09;19.70;99.90
22491;DHT22;11412;50.802;4.350;2023-07-30T08:30:34;19.70;99.90
22491;DHT22;11412;50.802;4.350;2023-07-30T08:33:00;19.80;99.90
22491;DHT22;11412;50.802;4.350;2023-07-30T08:35:26;19.80;99.90
22491;DHT22;11412;50.802;4.350;2023-07-30T08:37:54;19.80;99.90
22491;DHT22;11412;50.802;4.350;2023-07-30T08:40:24;19.80;99.90
22491;DHT22;11412;50.802;4.350;2023-07-30T08:42:51;19.70;99.90
22491;DHT22;11412;50.802;4.350;2023-07-30T08:45:17;19.60;99.90
22491;DHT22;11412;50.802;4.350;2023-07-30T08:47:44;19.60;99.90
22491;DHT22;11412;50.802;4.350;2023-07-30T08:50:10;19.60;99.90
22491;DHT22;11412;50.802;4.350;2023-07-30T08:52:36;19.50;99.90
22491;DHT22;11412;50.802;4.350;2023-07-30T08:55:03;19.60;99.90
22491;DHT22;11412;50.802;4.350;2023-07-30T08:57:30;19.50;99.90
22491;DHT22;11412;50.802;4.350;2023-07-30T09:00:11;19.50;99.90
22491;DHT22;11412;50.802;4.350;2023-07-30T09:02:53;19.60;99.90
22491;DHT22;11412;50.802;4.350;2023-07-30T09:05:22;19.60;99.90
22491;DHT22;11412;50.802;4.350;2023-07-30T09:07:48;19.50;99.90
22491;DHT22;11412;50.802;4.350;2023-07-30T09:10:14;19.40;99.90
22491;DHT22;11412;50.802;4.350;2023-07-30T09:12:40;19.20;99.90
22491;DHT22;11412;50.802;4.350;2023-07-30T09:15:07;18.90;99.90
22491;DHT22;11412;50.802;4.350;2023-07-30T09:17:33;18.60;99.90
22491;DHT22;11412;50.802;4.350;2023-07-30T09:20:00;18.50;99.90
22491;DHT22;11412;50.802;4.350;2023-07-30T09:22:27;18.40;99.90
22491;DHT22;11412;50.802;4.350;2023-07-30T09:24:57;18.40;99.90
22491;DHT22;11412;50.802;4.350;2023-07-30T09:27:24;18.40;99.90
22491;DHT22;11412;50.802;4.350;2023-07-30T09:29:57;18.50;99.90
22491;DHT22;11412;50.802;4.350;2023-07-30T09:32:30;18.60;99.90
22491;DHT22;11412;50.802;4.350;2023-07-30T09:35:07;18.90;99.90
22491;DHT22;11412;50.802;4.350;2023-07-30T09:37:36;19.00;99.90
22491;DHT22;11412;50.802;4.350;2023-07-30T09:40:08;19.20;99.90
22491;DHT22;11412;50.802;4.350;2023-07-30T09:42:35;19.20;99.90
22491;DHT22;11412;50.802;4.350;2023-07-30T09:45:08;19.10;99.90
22491;DHT22;11412;50.802;4.350;2023-07-30T09:47:49;19.00;99.90
22491;DHT22;11412;50.802;4.350;2023-07-30T09:50:15;19.00;99.90
22491;DHT22;11412;50.802;4.350;2023-07-30T09:52:42;18.90;99.90
22491;DHT22;11412;50.802;4.350;2023-07-30T09:55:08;19.00;99.90
22491;DHT22;11412;50.802;4.350;2023-07-30T09:57:34;19.10;99.90
22491;DHT22;11412;50.802;4.350;2023-07-30T10:00:01;19.10;99.90
22491;DHT22;11412;50.802;4.350;2023-07-30T10:02:28;19.20;99.90
22491;DHT22;11412;50.802;4.350;2023-07-30T10:04:57;19.20;99.90
22491;DHT22;11412;50.802;4.350;2023-07-30T10:07:25;19.30;99.90
22491;DHT22;11412;50.802;4.350;2023-07-30T10:09:55;19.40;99.90
22491;DHT22;11412;50.802;4.350;2023-07-30T10:12:25;19.40;99.90
22491;DHT22;11412;50.802;4.350;2023-07-30T10:14:53;19.40;99.90
22491;DHT22;11412;50.802;4.350;2023-07-30T10:17:19;19.60;99.90
22491;DHT22;11412;50.802;4.350;2023-07-30T10:19:48;19.80;99.90
22491;DHT22;11412;50.802;4.350;2023-07-30T10:24:40;20.30;99.90
22491;DHT22;11412;50.802;4.350;2023-07-30T10:27:09;20.80;99.90
22491;DHT22;11412;50.802;4.350;2023-07-30T10:29:40;21.50;99.90
22491;DHT22;11412;50.802;4.350;2023-07-30T10:32:07;21.80;99.90
22491;DHT22;11412;50.802;4.350;2023-07-30T10:34:47;22.20;99.90
22491;DHT22;11412;50.802;4.350;2023-07-30T10:37:20;22.20;99.90
22491;DHT22;11412;50.802;4.350;2023-07-30T10:39:50;22.10;99.90
22491;DHT22;11412;50.802;4.350;2023-07-30T10:42:15;21.60;99.90
22491;DHT22;11412;50.802;4.350;2023-07-30T10:44:44;21.40;99.90
22491;DHT22;11412;50.802;4.350;2023-07-30T10:47:10;21.10;99.90
22491;DHT22;11412;50.802;4.350;2023-07-30T10:49:38;20.70;99.90
22491;DHT22;11412;50.802;4.350;2023-07-30T10:52:04;20.40;99.90
22491;DHT22;11412;50.802;4.350;2023-07-30T10:54:36;20.40;99.90
22491;DHT22;11412;50.802;4.350;2023-07-30T10:57:05;20.50;99.90
22491;DHT22;11412;50.802;4.350;2023-07-30T10:59:35;20.40;99.90
22491;DHT22;11412;50.802;4.350;2023-07-30T11:02:02;20.60;99.90
22491;DHT22;11412;50.802;4.350;2023-07-30T11:04:28;20.90;99.90
22491;DHT22;11412;50.802;4.350;2023-07-30T11:06:53;21.00;99.90
22491;DHT22;11412;50.802;4.350;2023-07-30T11:09:23;21.30;99.90
22491;DHT22;11412;50.802;4.350;2023-07-30T11:11:50;21.60;99.90
22491;DHT22;11412;50.802;4.350;2023-07-30T11:14:20;22.10;99.90
22491;DHT22;11412;50.802;4.350;2023-07-30T11:16:57;22.40;99.90
22491;DHT22;11412;50.802;4.350;2023-07-30T11:19:27;22.90;99.90
22491;DHT22;11412;50.802;4.350;2023-07-30T11:21:56;23.20;99.90
22491;DHT22;11412;50.802;4.350;2023-07-30T11:24:22;23.30;99.90
22491;DHT22;11412;50.802;4.350;2023-07-30T11:27:07;23.60;99.90
22491;DHT22;11412;50.802;4.350;2023-07-30T11:29:33;23.40;99.90
22491;DHT22;11412;50.802;4.350;2023-07-30T11:31:59;23.20;99.90
22491;DHT22;11412;50.802;4.350;2023-07-30T11:34:26;23.10;99.90
22491;DHT22;11412;50.802;4.350;2023-07-30T11:36:53;23.30;99.90
22491;DHT22;11412;50.802;4.350;2023-07-30T11:39:19;23.50;99.90
22491;DHT22;11412;50.802;4.350;2023-07-30T11:41:45;23.80;99.90
22491;DHT22;11412;50.802;4.350;2023-07-30T11:44:33;23.90;99.90
22491;DHT22;11412;50.802;4.350;2023-07-30T11:46:59;24.30;99.90
22491;DHT22;11412;50.802;4.350;2023-07-30T11:49:24;24.60;99.90
22491;DHT22;11412;50.802;4.350;2023-07-30T11:51:50;24.90;99.90
22491;DHT22;11412;50.802;4.350;2023-07-30T11:54:21;25.20;99.90
22491;DHT22;11412;50.802;4.350;2023-07-30T11:56:56;25.30;99.90
22491;DHT22;11412;50.802;4.350;2023-07-30T11:59:22;25.40;99.90
22491;DHT22;11412;50.802;4.350;2023-07-30T12:01:48;24.70;99.90
22491;DHT22;11412;50.802;4.350;2023-07-30T12:04:14;24.20;99.90
22491;DHT22;11412;50.802;4.350;2023-07-30T12:06:46;23.90;99.90
22491;DHT22;11412;50.802;4.350;2023-07-30T12:11:57;24.00;99.90
22491;DHT22;11412;50.802;4.350;2023-07-30T12:14:42;24.40;99.90
22491;DHT22;11412;50.802;4.350;2023-07-30T12:17:09;24.30;99.90
22491;DHT22;11412;50.802;4.350;2023-07-30T12:19:34;24.00;99.90
22491;DHT22;11412;50.802;4.350;2023-07-30T12:22:02;24.00;99.90
22491;DHT22;11412;50.802;4.350;2023-07-30T12:24:27;24.10;99.90
22491;DHT22;11412;50.802;4.350;2023-07-30T12:26:53;24.00;99.90
22491;DHT22;11412;50.802;4.350;2023-07-30T12:29:19;23.80;99.90
22491;DHT22;11412;50.802;4.350;2023-07-30T12:31:44;23.80;99.90
22491;DHT22;11412;50.802;4.350;2023-07-30T12:34:11;24.10;99.90
22491;DHT22;11412;50.802;4.350;2023-07-30T12:36:40;24.30;99.90
22491;DHT22;11412;50.802;4.350;2023-07-30T12:39:06;23.80;99.90
22491;DHT22;11412;50.802;4.350;2023-07-30T12:41:33;23.60;99.90
22491;DHT22;11412;50.802;4.350;2023-07-30T12:43:59;23.60;99.90
22491;DHT22;11412;50.802;4.350;2023-07-30T12:46:25;23.80;99.90
22491;DHT22;11412;50.802;4.350;2023-07-30T12:48:55;24.20;99.90
22491;DHT22;11412;50.802;4.350;2023-07-30T12:51:21;24.60;99.90
22491;DHT22;11412;50.802;4.350;2023-07-30T12:53:47;24.70;99.90
22491;DHT22;11412;50.802;4.350;2023-07-30T12:56:13;24.60;99.90
22491;DHT22;11412;50.802;4.350;2023-07-30T12:58:40;24.60;99.90
22491;DHT22;11412;50.802;4.350;2023-07-30T13:01:06;24.80;99.90
22491;DHT22;11412;50.802;4.350;2023-07-30T13:03:32;25.20;99.90
22491;DHT22;11412;50.802;4.350;2023-07-30T13:05:58;25.20;99.90
22491;DHT22;11412;50.802;4.350;2023-07-30T13:08:23;24.80;99.90
22491;DHT22;11412;50.802;4.350;2023-07-30T13:10:50;24.70;99.90
22491;DHT22;11412;50.802;4.350;2023-07-30T13:13:16;24.70;99.90
22491;DHT22;11412;50.802;4.350;2023-07-30T13:15:41;24.80;99.90
22491;DHT22;11412;50.802;4.350;2023-07-30T13:18:07;24.50;99.90
22491;DHT22;11412;50.802;4.350;2023-07-30T13:20:32;24.70;99.90
22491;DHT22;11412;50.802;4.350;2023-07-30T13:22:58;24.90;99.90
22491;DHT22;11412;50.802;4.350;2023-07-30T13:25:24;25.30;99.90
22491;DHT22;11412;50.802;4.350;2023-07-30T13:27:50;25.40;99.90
22491;DHT22;11412;50.802;4.350;2023-07-30T13:30:16;25.40;99.90
22491;DHT22;11412;50.802;4.350;2023-07-30T13:32:41;25.10;99.90
22491;DHT22;11412;50.802;4.350;2023-07-30T13:35:07;25.10;99.90
22491;DHT22;11412;50.802;4.350;2023-07-30T13:37:33;25.10;99.90
22491;DHT22;11412;50.802;4.350;2023-07-30T13:39:59;25.20;99.90
22491;DHT22;11412;50.802;4.350;2023-07-30T13:42:25;25.20;99.90
22491;DHT22;11412;50.802;4.350;2023-07-30T13:44:51;25.30;99.90
22491;DHT22;11412;50.802;4.350;2023-07-30T13:47:17;25.20;99.90
22491;DHT22;11412;50.802;4.350;2023-07-30T13:49:42;25.10;99.90
22491;DHT22;11412;50.802;4.350;2023-07-30T13:52:08;25.30;99.90
22491;DHT22;11412;50.802;4.350;2023-07-30T13:54:35;25.30;99.90
22491;DHT22;11412;50.802;4.350;2023-07-30T13:57:03;25.00;99.90
22491;DHT22;11412;50.802;4.350;2023-07-30T13:59:30;24.60;99.90
22491;DHT22;11412;50.802;4.350;2023-07-30T14:01:56;24.50;99.90
22491;DHT22;11412;50.802;4.350;2023-07-30T14:04:22;24.40;99.90
22491;DHT22;11412;50.802;4.350;2023-07-30T14:06:47;24.70;99.90
22491;DHT22;11412;50.802;4.350;2023-07-30T14:09:13;24.80;99.90
22491;DHT22;11412;50.802;4.350;2023-07-30T14:11:39;24.60;99.90
22491;DHT22;11412;50.802;4.350;2023-07-30T14:14:08;24.50;99.90
22491;DHT22;11412;50.802;4.350;2023-07-30T14:16:34;24.20;99.90
22491;DHT22;11412;50.802;4.350;2023-07-30T14:18:59;23.90;99.90
22491;DHT22;11412;50.802;4.350;2023-07-30T14:21:25;23.80;99.90
22491;DHT22;11412;50.802;4.350;2023-07-30T14:23:50;23.60;99.90
22491;DHT22;11412;50.802;4.350;2023-07-30T14:26:16;23.60;99.90
22491;DHT22;11412;50.802;4.350;2023-07-30T14:28:42;23.40;99.90
22491;DHT22;11412;50.802;4.350;2023-07-30T14:31:07;23.30;99.90
22491;DHT22;11412;50.802;4.350;2023-07-30T14:33:33;23.40;99.90
22491;DHT22;11412;50.802;4.350;2023-07-30T14:35:59;23.60;99.90
22491;DHT22;11412;50.802;4.350;2023-07-30T14:38:24;23.70;99.90
22491;DHT22;11412;50.802;4.350;2023-07-30T14:40:50;23.60;99.90
22491;DHT22;11412;50.802;4.350;2023-07-30T14:43:15;23.50;99.90
22491;DHT22;11412;50.802;4.350;2023-07-30T14:45:41;23.40;99.90
22491;DHT22;11412;50.802;4.350;2023-07-30T14:48:07;23.30;99.90
22491;DHT22;11412;50.802;4.350;2023-07-30T14:50:32;23.20;99.90
22491;DHT22;11412;50.802;4.350;2023-07-30T14:52:58;22.80;99.90
22491;DHT22;11412;50.802;4.350;2023-07-30T14:55:23;22.60;99.90
22491;DHT22;11412;50.802;4.350;2023-07-30T14:57:50;22.40;99.90
22491;DHT22;11412;50.802;4.350;2023-07-30T15:00:16;22.40;99.90
22491;DHT22;11412;50.802;4.350;2023-07-30T15:02:42;22.40;99.90
22491;DHT22;11412;50.802;4.350;2023-07-30T15:05:08;22.40;99.90
22491;DHT22;11412;50.802;4.350;2023-07-30T15:07:34;22.30;99.90
22491;DHT22;11412;50.802;4.350;2023-07-30T15:09:59;22.20;99.90
22491;DHT22;11412;50.802;4.350;2023-07-30T15:12:26;22.30;99.90
22491;DHT22;11412;50.802;4.350;2023-07-30T15:14:51;22.20;99.90
22491;DHT22;11412;50.802;4.350;2023-07-30T15:17:17;21.90;99.90
22491;DHT22;11412;50.802;4.350;2023-07-30T15:19:43;21.80;99.90
22491;DHT22;11412;50.802;4.350;2023-07-30T15:22:12;21.80;99.90
22491;DHT22;11412;50.802;4.350;2023-07-30T15:24:38;21.70;99.90
22491;DHT22;11412;50.802;4.350;2023-07-30T15:27:04;21.70;99.90
22491;DHT22;11412;50.802;4.350;2023-07-30T15:29:30;21.60;99.90
22491;DHT22;11412;50.802;4.350;2023-07-30T15:31:55;21.80;99.90